createdAt,value
2018-02-15T00:08:08.556Z,24.9
2018-02-15T00:23:08.537Z,21.6
2018-02-15T00:38:08.458Z,23.4
2018-02-15T00:53:08.691Z,21.8
2018-02-15T01:13:08.479Z,21.3
2018-02-15T01:28:08.421Z,20.4
2018-02-15T01:43:08.677Z,21.9
2018-02-15T02:03:08.630Z,23
2018-02-15T02:18:08.519Z,19.4
2018-02-15T02:33:08.699Z,20.9
2018-02-15T02:48:08.712Z,21.2
2018-02-15T03:08:08.554Z,20.1
2018-02-15T03:23:08.750Z,19.3
2018-02-15T03:38:11.465Z,17.9
2018-02-15T03:58:11.726Z,18.5
2018-02-15T04:13:11.790Z,15.7
2018-02-15T04:28:11.707Z,17.4
2018-02-15T04:43:11.894Z,16.6
2018-02-15T05:03:11.712Z,17.6
2018-02-15T05:18:11.842Z,17.7
2018-02-15T05:33:11.797Z,15.3
2018-02-15T05:48:11.811Z,15.4
2018-02-15T06:08:11.814Z,16.8
2018-02-15T06:23:12.077Z,18.2
2018-02-15T06:38:11.959Z,17.9
2018-02-15T06:58:12.029Z,18.1
2018-02-15T07:13:11.969Z,32.3
2018-02-15T07:28:12.026Z,19.1
2018-02-15T07:43:12.033Z,22.3
2018-02-15T08:03:12.258Z,21.4
2018-02-15T08:18:12.200Z,22.4
2018-02-15T08:33:19.950Z,22.2
2018-02-15T08:53:15.014Z,23.2
2018-02-15T09:08:14.993Z,26.1
2018-02-15T09:23:15.045Z,23.7
2018-02-15T09:38:15.316Z,22.8
2018-02-15T09:58:15.360Z,21.2
2018-02-15T10:13:15.257Z,19.4
2018-02-15T10:28:15.345Z,15.4
2018-02-15T10:43:15.453Z,16.3
2018-02-15T11:03:15.444Z,16
2018-02-15T11:18:15.492Z,19
2018-02-15T11:33:15.593Z,16.3
2018-02-15T11:53:15.610Z,13.6
2018-02-15T12:08:15.730Z,15
2018-02-15T12:23:15.625Z,16
2018-02-15T12:38:15.595Z,16.1
2018-02-15T12:58:15.678Z,16.2
2018-02-15T13:13:17.193Z,14.6
2018-02-15T13:48:22.451Z,15.9
2018-02-15T14:03:22.470Z,15.6
2018-02-15T14:18:22.754Z,17.4
2018-02-15T14:33:22.763Z,16.3
2018-02-15T14:53:22.835Z,16.3
2018-02-15T15:08:23.127Z,16.1
2018-02-15T15:43:23.006Z,15.5
2018-02-15T15:58:23.003Z,13.5
2018-02-15T16:13:22.876Z,14.4
2018-02-15T16:28:23.150Z,14.5
2018-02-15T16:48:24.367Z,13.6
2018-02-15T17:03:22.917Z,15.3
2018-02-15T17:18:26.427Z,16.6
2018-02-15T17:38:26.472Z,16.1
2018-02-15T17:53:26.338Z,18.1
2018-02-15T18:08:28.626Z,16.7
2018-02-15T18:23:28.834Z,21.8
2018-02-15T18:43:28.678Z,20.3
2018-02-15T18:58:28.851Z,22.6
2018-02-15T19:13:28.952Z,23.8
2018-02-15T19:33:28.989Z,23.6
2018-02-15T20:03:28.795Z,30.3
2018-02-15T20:18:28.978Z,27.7
2018-02-15T20:38:28.725Z,29.2
2018-02-15T20:53:28.943Z,29.3
2018-02-15T21:08:28.752Z,25
2018-02-15T21:28:28.768Z,25.3
2018-02-15T21:43:28.765Z,36.9
2018-02-15T21:58:29.237Z,33.8
2018-02-15T22:13:28.968Z,32.7
2018-02-15T22:33:30.048Z,32
2018-02-15T22:48:28.797Z,30
2018-02-15T23:03:30.657Z,31.8
2018-02-15T23:23:30.899Z,33.8
2018-02-15T23:38:30.651Z,33.8
